CheckWX is a tool to help pilots better visualize weather data.  It is not intended as a substitute for an official pre-flight weather briefing.

21:33:54 UTC

KJAQ METAR
Westover Field Amador County Airport
Jackson, California, USA
Current

19 mins ago

KJAQ 232115Z AUTO 12005KT 10SM SCT042 20/11 A2983 RMK AO1 T02020109
Observed
May-23 @ 21:15 UTC
Wind
  • 120° at 5 KTS
Visibility
10 SM
Flight Rules
VFR
Cloud Levels
  • Scattered at 4,200' AGL
Temperature
20°C / 68°F
Dewpoint
11°C / 52°F
Humidity
56%
Altimeter
29.83" Hg
Pressure
1010.12 hPa
Previous

39 mins ago

KJAQ 232055Z AUTO 15006G14KT 10SM SCT035 SCT042 SCT050 20/11 A2983 RMK AO1 T02010108
Observed
May-23 @ 20:55 UTC
Wind
  • 150° at 6 KTS
  • Gusting to 14 KTS
Visibility
10 SM
Flight Rules
VFR
Cloud Levels
  • Scattered at 3,500' AGL
  • Scattered at 4,200' AGL
  • Scattered at 5,000' AGL
Temperature
20°C / 68°F
Dewpoint
11°C / 52°F
Humidity
56%
Altimeter
29.83" Hg
Pressure
1010.12 hPa
Previous

59 mins ago

KJAQ 232035Z AUTO 20003KT 10SM SCT035 SCT046 19/11 A2983 RMK AO1 T01860106
Observed
May-23 @ 20:35 UTC
Wind
  • 200° at 3 KTS
Visibility
10 SM
Flight Rules
VFR
Cloud Levels
  • Scattered at 3,500' AGL
  • Scattered at 4,600' AGL
Temperature
19°C / 66°F
Dewpoint
11°C / 52°F
Humidity
60%
Altimeter
29.83" Hg
Pressure
1010.12 hPa